Time;durP1;ratioP1;P1;durP2;ratioP2;P2;SDS_P1;SDS_P2;PMS_P1;PMS_P2;Temp;Humidity;BMP_temperature;BMP_pressure;BME280_temperature;BME280_humidity;BME280_pressure;Samples;Min_cycle;Max_cycle;Signal;HPM_P1;HPM_P2
2022/08/21 00:00:40;;;;;;;0.50;0.50;;;12.40;99.90;;;;;;4995479;28;20625;-74
2022/08/21 00:03:08;;;;;;;0.65;0.60;;;12.40;99.90;;;;;;4995753;28;20650;-74
2022/08/21 00:05:38;;;;;;;0.45;0.45;;;12.40;99.90;;;;;;4995285;28;20198;-74
2022/08/21 00:08:04;;;;;;;0.50;0.50;;;12.40;99.90;;;;;;4995715;28;20654;-73
2022/08/21 00:10:30;;;;;;;3.47;0.95;;;12.40;99.90;;;;;;4995193;28;20677;-75
2022/08/21 00:12:56;;;;;;;0.43;0.43;;;12.40;99.90;;;;;;4995374;28;20191;-75
2022/08/21 00:15:28;;;;;;;0.43;0.43;;;12.40;99.90;;;;;;4999189;28;20659;-74
2022/08/21 00:17:56;;;;;;;0.65;0.65;;;12.30;99.90;;;;;;5015069;28;20697;-74
2022/08/21 00:20:23;;;;;;;1.30;0.70;;;12.30;99.90;;;;;;5013610;28;20203;-75
2022/08/21 00:22:49;;;;;;;0.50;0.50;;;12.20;99.90;;;;;;5014667;28;20599;-74
2022/08/21 00:25:17;;;;;;;0.60;0.60;;;12.20;99.90;;;;;;5014752;28;20198;-75
2022/08/21 00:27:43;;;;;;;1.42;0.98;;;12.20;99.90;;;;;;5014496;28;20249;-74
2022/08/21 00:30:11;;;;;;;0.57;0.57;;;12.10;99.90;;;;;;5014700;28;20202;-74
2022/08/21 00:32:38;;;;;;;0.70;0.70;;;12.10;99.90;;;;;;5014511;28;20205;-74
2022/08/21 00:35:11;;;;;;;0.50;0.50;;;12.10;99.90;;;;;;5014394;28;20194;-74
2022/08/21 00:37:38;;;;;;;0.50;0.50;;;12.00;99.90;;;;;;5013224;28;20197;-74
2022/08/21 00:40:06;;;;;;;0.50;0.50;;;12.00;99.90;;;;;;5014530;28;20199;-74
2022/08/21 00:42:32;;;;;;;0.50;0.50;;;11.90;99.90;;;;;;5014048;28;20206;-74
2022/08/21 00:44:58;;;;;;;0.80;0.80;;;11.90;99.90;;;;;;5012046;28;20252;-74
2022/08/21 00:47:23;;;;;;;2.15;1.30;;;11.90;99.90;;;;;;4994884;28;20206;-74
2022/08/21 00:49:49;;;;;;;0.57;0.57;;;11.80;99.90;;;;;;4993381;28;20584;-73
2022/08/21 00:52:21;;;;;;;1.85;1.05;;;11.70;99.90;;;;;;4994763;28;20192;-76
2022/08/21 00:54:50;;;;;;;0.60;0.60;;;11.70;99.90;;;;;;4993660;28;20207;-74
2022/08/21 00:57:21;;;;;;;0.50;0.50;;;11.60;99.90;;;;;;4994140;28;20233;-74
2022/08/21 00:59:51;;;;;;;0.50;0.50;;;11.60;99.90;;;;;;4993300;28;20689;-75
2022/08/21 01:02:18;;;;;;;0.60;0.60;;;11.60;99.90;;;;;;4994065;28;20685;-74
2022/08/21 01:04:44;;;;;;;0.50;0.50;;;11.50;99.90;;;;;;4994541;28;20219;-74
2022/08/21 01:07:10;;;;;;;2.65;0.88;;;11.50;99.90;;;;;;4993211;28;20208;-73
2022/08/21 01:09:37;;;;;;;0.70;0.70;;;11.40;99.90;;;;;;4992920;28;20701;-75
2022/08/21 01:12:03;;;;;;;0.75;0.75;;;11.30;99.90;;;;;;5001175;28;20198;-75
2022/08/21 01:14:30;;;;;;;0.70;0.70;;;11.30;99.90;;;;;;5013852;28;20197;-73
2022/08/21 01:16:57;;;;;;;0.65;0.63;;;11.20;99.90;;;;;;5012451;28;20199;-73
2022/08/21 01:19:27;;;;;;;0.50;0.50;;;11.20;99.90;;;;;;5013414;28;20238;-74
2022/08/21 01:21:56;;;;;;;0.73;0.73;;;11.20;99.90;;;;;;5013175;28;20206;-74
2022/08/21 01:24:23;;;;;;;0.50;0.50;;;11.10;99.90;;;;;;5013640;28;20194;-74
2022/08/21 01:26:50;;;;;;;0.60;0.60;;;11.10;99.90;;;;;;5012586;28;20241;-74
2022/08/21 01:29:37;;;;;;;1.55;1.05;;;11.10;99.90;;;;;;5012431;28;20211;-74
2022/08/21 01:32:09;;;;;;;1.52;1.17;;;11.00;99.90;;;;;;4995462;28;20199;-75
2022/08/21 01:34:37;;;;;;;0.60;0.60;;;11.00;99.90;;;;;;5025405;28;20206;-74
2022/08/21 01:37:03;;;;;;;4.57;1.70;;;11.00;99.90;;;;;;4993862;28;20202;-74
2022/08/21 01:39:29;;;;;;;0.50;0.50;;;10.90;99.90;;;;;;5012086;28;20662;-74
2022/08/21 01:41:55;;;;;;;0.52;0.52;;;10.90;99.90;;;;;;5011959;28;20256;-73
2022/08/21 01:44:22;;;;;;;0.55;0.55;;;10.90;99.90;;;;;;5013188;28;20202;-73
2022/08/21 01:46:50;;;;;;;0.50;0.50;;;10.90;99.90;;;;;;5013516;28;20246;-73
2022/08/21 01:49:17;;;;;;;0.60;0.60;;;10.80;99.90;;;;;;5013654;28;20222;-73
2022/08/21 01:51:43;;;;;;;0.50;0.50;;;10.80;99.90;;;;;;5013670;28;20654;-74
2022/08/21 01:54:09;;;;;;;0.60;0.60;;;10.80;99.90;;;;;;5013831;28;20252;-73
2022/08/21 01:56:42;;;;;;;0.65;0.65;;;10.80;99.90;;;;;;5013442;28;20886;-73
2022/08/21 01:59:08;;;;;;;0.60;0.60;;;10.80;99.90;;;;;;5012406;28;20194;-73
2022/08/21 02:01:34;;;;;;;1.65;0.90;;;10.70;99.90;;;;;;5001994;28;20209;-73
2022/08/21 02:04:00;;;;;;;0.60;0.60;;;10.70;99.90;;;;;;4992454;28;20203;-73
2022/08/21 02:06:26;;;;;;;0.65;0.65;;;10.70;99.90;;;;;;4993489;28;20254;-73
2022/08/21 02:08:52;;;;;;;0.60;0.60;;;10.60;99.90;;;;;;5005585;28;20294;-72
2022/08/21 02:11:18;;;;;;;0.50;0.50;;;10.60;99.90;;;;;;5013633;28;20285;-72
2022/08/21 02:13:44;;;;;;;2.28;1.63;;;10.60;99.90;;;;;;5012046;28;20195;-73
2022/08/21 02:16:10;;;;;;;0.50;0.50;;;10.50;99.90;;;;;;5013249;28;20257;-72
2022/08/21 02:18:36;;;;;;;0.60;0.60;;;10.50;99.90;;;;;;5013305;28;20575;-72
2022/08/21 02:21:03;;;;;;;0.43;0.43;;;10.50;99.90;;;;;;5012062;28;20261;-72
2022/08/21 02:23:29;;;;;;;0.60;0.60;;;10.50;99.90;;;;;;5013358;28;20229;-74
2022/08/21 02:25:59;;;;;;;0.50;0.50;;;10.40;99.90;;;;;;5013279;28;20223;-74
2022/08/21 02:28:28;;;;;;;0.60;0.60;;;10.40;99.90;;;;;;5012959;28;20215;-74
2022/08/21 02:30:54;;;;;;;0.63;0.63;;;10.40;99.90;;;;;;5011589;28;20210;-74
2022/08/21 02:33:20;;;;;;;0.70;0.70;;;10.40;99.90;;;;;;5013824;28;20191;-74
2022/08/21 02:35:47;;;;;;;0.60;0.60;;;10.30;99.90;;;;;;5015395;28;20290;-73
2022/08/21 02:38:22;;;;;;;0.80;0.80;;;10.30;99.90;;;;;;5015459;28;20195;-73
2022/08/21 02:40:51;;;;;;;0.60;0.60;;;10.30;99.90;;;;;;5015226;28;20562;-74
2022/08/21 02:43:17;;;;;;;1.00;0.90;;;10.30;99.90;;;;;;5016853;28;20577;-74
2022/08/21 02:45:44;;;;;;;0.73;0.73;;;10.30;99.90;;;;;;5007780;28;20226;-73
2022/08/21 02:48:13;;;;;;;18.75;1.48;;;10.30;99.90;;;;;;4997139;28;20230;-73
2022/08/21 02:50:46;;;;;;;0.52;0.52;;;10.30;99.90;;;;;;4995469;28;20630;-73
2022/08/21 02:53:16;;;;;;;0.60;0.60;;;10.30;99.90;;;;;;4996965;28;20203;-73
2022/08/21 02:55:43;;;;;;;0.80;0.80;;;10.20;99.90;;;;;;4995662;28;20191;-74
2022/08/21 02:58:10;;;;;;;0.77;0.77;;;10.20;99.90;;;;;;5013391;28;20203;-73
2022/08/21 03:00:37;;;;;;;0.70;0.70;;;10.20;99.90;;;;;;5011671;28;20226;-73
2022/08/21 03:03:04;;;;;;;0.50;0.50;;;10.20;99.90;;;;;;5032921;28;20262;-73
2022/08/21 03:05:34;;;;;;;3.63;1.00;;;10.20;99.90;;;;;;5015519;28;20194;-74
2022/08/21 03:08:01;;;;;;;0.57;0.57;;;10.10;99.90;;;;;;5014984;28;20257;-74
2022/08/21 03:10:28;;;;;;;0.60;0.60;;;10.10;99.90;;;;;;5015920;28;20207;-74
2022/08/21 03:12:57;;;;;;;0.60;0.60;;;10.00;99.90;;;;;;5014847;28;20657;-74
2022/08/21 03:15:23;;;;;;;0.60;0.60;;;10.00;99.90;;;;;;5015597;28;20194;-73
2022/08/21 03:17:50;;;;;;;0.70;0.70;;;10.00;99.90;;;;;;5014592;28;20226;-74
2022/08/21 03:20:19;;;;;;;3.03;1.08;;;10.00;99.90;;;;;;5047572;28;20207;-73
2022/08/21 03:22:47;;;;;;;0.52;0.52;;;10.00;99.90;;;;;;5015917;28;20194;-74
2022/08/21 03:25:13;;;;;;;0.73;0.73;;;10.00;99.90;;;;;;5014559;28;20202;-73
2022/08/21 03:27:39;;;;;;;0.60;0.60;;;9.90;99.90;;;;;;5014423;28;20413;-74
2022/08/21 03:30:08;;;;;;;0.60;0.60;;;9.90;99.90;;;;;;5015855;28;20207;-74
2022/08/21 03:32:35;;;;;;;0.60;0.60;;;10.00;99.90;;;;;;5015487;28;20195;-73
2022/08/21 03:35:01;;;;;;;0.60;0.60;;;10.00;99.90;;;;;;5002822;28;20200;-74
2022/08/21 03:37:27;;;;;;;0.63;0.63;;;9.90;99.90;;;;;;4995060;28;20207;-74
2022/08/21 03:39:53;;;;;;;0.68;0.68;;;9.90;99.90;;;;;;4996147;28;20257;-74
2022/08/21 03:42:19;;;;;;;0.70;0.70;;;9.90;99.90;;;;;;4994420;28;20203;-74
2022/08/21 03:44:45;;;;;;;0.60;0.60;;;9.90;99.90;;;;;;4995337;28;20279;-74
2022/08/21 03:47:10;;;;;;;0.60;0.60;;;9.90;99.90;;;;;;4994407;28;20570;-74
2022/08/21 03:49:36;;;;;;;0.80;0.80;;;9.90;99.90;;;;;;4995614;28;20295;-73
2022/08/21 03:52:03;;;;;;;0.60;0.60;;;9.90;99.90;;;;;;4994608;28;20206;-74
2022/08/21 03:54:29;;;;;;;0.60;0.60;;;10.00;99.90;;;;;;4995587;28;20712;-73
2022/08/21 03:56:56;;;;;;;0.60;0.60;;;10.10;99.90;;;;;;4995863;28;20562;-73
2022/08/21 03:59:21;;;;;;;0.65;0.65;;;10.10;99.90;;;;;;4993937;28;20226;-74
2022/08/21 04:01:57;;;;;;;0.60;0.60;;;10.20;99.90;;;;;;5012270;28;20198;-73
2022/08/21 04:04:27;;;;;;;0.60;0.60;;;10.20;99.90;;;;;;5015081;28;20198;-73
2022/08/21 04:06:53;;;;;;;0.60;0.60;;;10.20;99.90;;;;;;5013786;28;20713;-74
2022/08/21 04:09:19;;;;;;;0.60;0.60;;;10.20;99.90;;;;;;5013658;28;20223;-73
2022/08/21 04:11:46;;;;;;;0.60;0.60;;;10.10;99.90;;;;;;5014163;28;20201;-73
2022/08/21 04:14:14;;;;;;;0.70;0.70;;;10.10;99.90;;;;;;5013661;28;20666;-74
2022/08/21 04:16:41;;;;;;;0.70;0.70;;;10.10;99.90;;;;;;5013658;28;20209;-74
2022/08/21 04:19:07;;;;;;;0.60;0.60;;;10.20;99.90;;;;;;5014838;28;20246;-74
2022/08/21 04:21:33;;;;;;;0.70;0.70;;;10.20;99.90;;;;;;5013484;28;20721;-73
2022/08/21 04:23:59;;;;;;;0.60;0.60;;;10.30;99.90;;;;;;5013602;28;20199;-75
2022/08/21 04:26:25;;;;;;;0.60;0.60;;;10.40;99.90;;;;;;5014533;28;20674;-73
2022/08/21 04:28:52;;;;;;;0.60;0.60;;;10.50;99.90;;;;;;5015176;28;20660;-72
2022/08/21 04:31:18;;;;;;;0.60;0.60;;;10.60;99.90;;;;;;5000007;28;20203;-74
2022/08/21 04:33:44;;;;;;;0.50;0.50;;;10.60;99.90;;;;;;4997004;28;20211;-73
2022/08/21 04:36:10;;;;;;;1.30;1.20;;;10.70;99.90;;;;;;5014468;28;20187;-74
2022/08/21 04:38:36;;;;;;;0.60;0.60;;;10.90;99.90;;;;;;5012720;28;20199;-74
2022/08/21 04:41:02;;;;;;;0.50;0.50;;;11.00;99.90;;;;;;5013071;28;20209;-73
2022/08/21 04:43:28;;;;;;;1.30;1.23;;;11.20;99.90;;;;;;5014159;28;20199;-74
2022/08/21 04:45:57;;;;;;;0.60;0.60;;;11.30;99.90;;;;;;5014378;28;20203;-74
2022/08/21 04:48:26;;;;;;;0.60;0.60;;;11.40;99.90;;;;;;5014166;28;20681;-73
2022/08/21 04:51:02;;;;;;;0.55;0.55;;;11.50;99.90;;;;;;5012903;28;20219;-73
2022/08/21 04:53:42;;;;;;;0.50;0.50;;;11.70;99.90;;;;;;5012941;28;20627;-74
2022/08/21 04:56:14;;;;;;;0.90;0.90;;;11.80;99.90;;;;;;5012723;28;20187;-73
2022/08/21 04:58:41;;;;;;;3.97;1.35;;;12.00;99.90;;;;;;5012787;28;20226;-73
2022/08/21 05:01:13;;;;;;;0.80;0.80;;;12.10;99.90;;;;;;5012728;28;20666;-73
2022/08/21 05:03:40;;;;;;;1.33;0.90;;;12.20;99.90;;;;;;5012554;28;20202;-74
2022/08/21 05:06:10;;;;;;;1.13;1.05;;;12.40;99.90;;;;;;5014195;28;20245;-74
2022/08/21 05:08:38;;;;;;;0.50;0.50;;;12.50;99.90;;;;;;5012628;28;20747;-74
2022/08/21 05:11:04;;;;;;;1.05;1.00;;;12.80;99.90;;;;;;5013904;28;20278;-74
2022/08/21 05:13:30;;;;;;;1.95;1.25;;;12.90;99.90;;;;;;5013788;28;20641;-75
2022/08/21 05:15:56;;;;;;;0.50;0.50;;;13.00;99.90;;;;;;5014080;28;20226;-74
2022/08/21 05:18:21;;;;;;;0.90;0.85;;;13.10;99.90;;;;;;5012378;28;20314;-75
2022/08/21 05:20:47;;;;;;;0.43;0.43;;;13.20;99.90;;;;;;5013693;28;20195;-74
2022/08/21 05:23:14;;;;;;;0.65;0.65;;;13.30;99.90;;;;;;5014082;28;20274;-74
2022/08/21 05:25:41;;;;;;;0.60;0.60;;;13.40;99.90;;;;;;5012522;28;20210;-75
2022/08/21 05:28:07;;;;;;;0.45;0.45;;;13.60;99.90;;;;;;5013887;28;20705;-74
2022/08/21 05:30:34;;;;;;;0.57;0.50;;;13.70;99.90;;;;;;5013397;28;20658;-74
2022/08/21 05:33:02;;;;;;;0.70;0.70;;;13.80;99.90;;;;;;5012589;28;20203;-74
2022/08/21 05:35:30;;;;;;;0.95;0.88;;;13.90;99.90;;;;;;5013745;28;20249;-74
2022/08/21 05:37:56;;;;;;;0.50;0.50;;;14.00;99.90;;;;;;5013509;28;20201;-74
2022/08/21 05:40:23;;;;;;;3.83;1.08;;;14.20;99.90;;;;;;5012051;28;20199;-75
2022/08/21 05:42:50;;;;;;;0.40;0.40;;;14.30;99.90;;;;;;5013594;28;20195;-74
2022/08/21 05:45:16;;;;;;;0.50;0.50;;;14.40;99.90;;;;;;5012205;28;20636;-75
2022/08/21 05:47:42;;;;;;;0.75;0.75;;;14.60;99.90;;;;;;5013243;28;20195;-74
2022/08/21 05:50:09;;;;;;;1.75;0.90;;;14.70;99.90;;;;;;5013558;28;20678;-73
2022/08/21 05:52:34;;;;;;;0.50;0.50;;;14.80;99.90;;;;;;5015389;28;20624;-74
2022/08/21 05:55:00;;;;;;;0.40;0.40;;;14.90;99.90;;;;;;5033179;28;20228;-74
2022/08/21 05:57:26;;;;;;;0.63;0.60;;;15.10;99.90;;;;;;5033146;28;20201;-74
2022/08/21 05:59:52;;;;;;;1.05;0.95;;;15.20;99.90;;;;;;5031755;28;20611;-74
2022/08/21 06:02:19;;;;;;;0.75;0.75;;;15.30;99.90;;;;;;5031535;28;20205;-73
2022/08/21 06:04:45;;;;;;;0.60;0.60;;;15.40;99.90;;;;;;5033089;28;20201;-74
2022/08/21 06:07:11;;;;;;;3.30;0.73;;;15.50;99.90;;;;;;5032331;28;20194;-74
2022/08/21 06:09:37;;;;;;;0.50;0.50;;;15.60;99.90;;;;;;5035441;28;20210;-74
2022/08/21 06:12:12;;;;;;;0.50;0.50;;;15.80;99.90;;;;;;5026733;28;20233;-71
2022/08/21 06:14:39;;;;;;;3.83;0.95;;;16.20;99.90;;;;;;5016608;28;20653;-71
2022/08/21 06:17:08;;;;;;;0.73;0.73;;;17.00;99.90;;;;;;5016849;28;20195;-71
2022/08/21 06:19:34;;;;;;;0.52;0.52;;;17.80;99.90;;;;;;5016595;28;20243;-72
2022/08/21 06:22:00;;;;;;;0.30;0.30;;;18.50;99.90;;;;;;5016704;28;20296;-71
2022/08/21 06:24:26;;;;;;;0.40;0.40;;;18.90;99.90;;;;;;5014998;28;20206;-71
2022/08/21 06:26:53;;;;;;;0.75;0.73;;;19.10;99.90;;;;;;5015165;28;20202;-71
2022/08/21 06:29:19;;;;;;;0.50;0.50;;;19.00;99.90;;;;;;5015158;28;20724;-71
2022/08/21 06:31:47;;;;;;;18.80;0.55;;;19.10;99.90;;;;;;5015290;28;20194;-71
2022/08/21 06:34:13;;;;;;;1.70;1.23;;;19.30;99.90;;;;;;5016567;28;20191;-71
2022/08/21 06:36:39;;;;;;;0.40;0.40;;;19.80;99.90;;;;;;5016275;28;20199;-71
2022/08/21 06:39:05;;;;;;;0.28;0.28;;;19.70;99.90;;;;;;5016352;28;20635;-71
2022/08/21 06:41:31;;;;;;;0.85;0.65;;;19.30;99.90;;;;;;5016108;28;20206;-71
2022/08/21 06:43:57;;;;;;;0.63;0.55;;;19.20;99.90;;;;;;5015045;28;20241;-71
2022/08/21 06:46:26;;;;;;;0.98;0.57;;;19.30;99.90;;;;;;5015839;28;20743;-71
2022/08/21 06:48:52;;;;;;;0.40;0.40;;;19.50;99.90;;;;;;5016040;28;20606;-72
2022/08/21 06:51:17;;;;;;;0.30;0.30;;;20.00;99.90;;;;;;5016052;28;20195;-71
2022/08/21 06:53:43;;;;;;;15.52;0.50;;;20.30;99.90;;;;;;5014794;28;20195;-71
2022/08/21 06:56:09;;;;;;;1.92;0.60;;;20.60;99.90;;;;;;5014935;28;20195;-73
2022/08/21 06:58:35;;;;;;;0.55;0.55;;;20.80;99.90;;;;;;5015918;28;20195;-73
2022/08/21 07:01:00;;;;;;;0.43;0.40;;;21.00;99.90;;;;;;5014473;28;20222;-73
2022/08/21 07:03:38;;;;;;;0.30;0.30;;;21.20;99.90;;;;;;5014503;28;20199;-72
2022/08/21 07:06:05;;;;;;;0.60;0.60;;;21.30;99.90;;;;;;5014969;28;20201;-73
2022/08/21 07:08:31;;;;;;;0.50;0.50;;;21.10;99.90;;;;;;5015672;28;20191;-73
2022/08/21 07:10:59;;;;;;;0.20;0.20;;;20.70;99.90;;;;;;5014607;28;20568;-72
2022/08/21 07:13:26;;;;;;;0.47;0.45;;;20.80;99.90;;;;;;5015544;28;20191;-70
2022/08/21 07:15:51;;;;;;;0.40;0.40;;;21.00;99.90;;;;;;5014301;28;20205;-69
2022/08/21 07:18:17;;;;;;;0.50;0.50;;;21.20;99.90;;;;;;5015695;28;20584;-71
2022/08/21 07:20:43;;;;;;;0.65;0.43;;;21.00;99.90;;;;;;4994983;28;20195;-71
2022/08/21 07:23:28;;;;;;;6.60;0.50;;;21.20;99.90;;;;;;5003808;28;20199;-73
2022/08/21 07:25:54;;;;;;;0.38;0.38;;;21.20;99.90;;;;;;5015548;28;20195;-73
2022/08/21 07:28:20;;;;;;;1.08;1.00;;;21.60;99.90;;;;;;5015352;28;20266;-72
2022/08/21 07:30:50;;;;;;;0.40;0.40;;;21.70;99.90;;;;;;5015618;28;20724;-72
2022/08/21 07:33:16;;;;;;;0.57;0.57;;;22.00;99.90;;;;;;5014206;28;20198;-73
2022/08/21 07:35:41;;;;;;;0.50;0.50;;;22.10;99.90;;;;;;5015172;28;20563;-72
2022/08/21 07:38:07;;;;;;;0.30;0.30;;;21.80;99.90;;;;;;5014113;28;20203;-72
2022/08/21 07:40:33;;;;;;;0.82;0.73;;;21.40;99.90;;;;;;5015026;28;20195;-71
2022/08/21 07:43:05;;;;;;;0.30;0.30;;;21.30;99.90;;;;;;5015174;28;20191;-72
2022/08/21 07:45:30;;;;;;;0.30;0.30;;;21.10;99.90;;;;;;5015048;28;20203;-72
2022/08/21 07:47:56;;;;;;;0.38;0.38;;;21.30;99.90;;;;;;5015383;28;20666;-72
2022/08/21 07:50:22;;;;;;;0.73;0.50;;;21.40;99.90;;;;;;5013350;28;20222;-72
2022/08/21 07:52:48;;;;;;;3.75;0.60;;;21.30;99.90;;;;;;5014960;28;20191;-71
2022/08/21 07:55:17;;;;;;;0.70;0.50;;;21.50;99.90;;;;;;5013757;28;20195;-72
2022/08/21 07:57:44;;;;;;;0.30;0.30;;;21.80;99.90;;;;;;5014885;28;20195;-72
2022/08/21 08:00:14;;;;;;;0.38;0.38;;;21.90;99.90;;;;;;5014791;28;20689;-72
2022/08/21 08:02:40;;;;;;;0.50;0.50;;;21.60;99.90;;;;;;5014410;28;20223;-71
2022/08/21 08:05:10;;;;;;;0.45;0.45;;;21.70;99.90;;;;;;5014893;28;20195;-71
2022/08/21 08:07:37;;;;;;;0.38;0.38;;;21.80;99.90;;;;;;5014849;28;20194;-73
2022/08/21 08:10:06;;;;;;;0.28;0.28;;;21.80;99.90;;;;;;5014666;28;20211;-72
2022/08/21 08:12:32;;;;;;;2.15;0.68;;;21.40;99.90;;;;;;5014478;28;20210;-72
2022/08/21 08:14:59;;;;;;;2.05;0.95;;;21.50;99.90;;;;;;5014435;28;20206;-71
2022/08/21 08:17:26;;;;;;;0.40;0.40;;;21.70;99.90;;;;;;5014266;28;20584;-72
2022/08/21 08:19:52;;;;;;;0.82;0.50;;;21.80;99.90;;;;;;5013232;28;20211;-72
2022/08/21 08:22:21;;;;;;;0.28;0.28;;;22.00;99.90;;;;;;5013247;28;20201;-72
2022/08/21 08:24:48;;;;;;;0.30;0.30;;;22.10;99.90;;;;;;5013530;28;20582;-72
2022/08/21 08:27:14;;;;;;;1.08;0.38;;;22.70;99.90;;;;;;5013031;28;20202;-73
2022/08/21 08:29:40;;;;;;;0.50;0.50;;;22.80;99.90;;;;;;5014271;28;20232;-72
2022/08/21 08:32:09;;;;;;;0.40;0.40;;;22.70;99.90;;;;;;5014398;28;20564;-72
2022/08/21 08:34:36;;;;;;;1.40;0.57;;;22.40;99.90;;;;;;5014102;28;20256;-73
2022/08/21 08:37:03;;;;;;;0.30;0.30;;;22.00;99.90;;;;;;5013066;28;20704;-72
2022/08/21 08:39:29;;;;;;;0.20;0.20;;;21.80;99.90;;;;;;5013604;28;20375;-72
2022/08/21 08:42:05;;;;;;;0.68;0.30;;;22.00;99.90;;;;;;5019250;28;20248;-72
2022/08/21 08:44:30;;;;;;;0.32;0.32;;;22.20;99.90;;;;;;5032288;28;20279;-72
2022/08/21 08:47:00;;;;;;;0.50;0.50;;;22.20;99.90;;;;;;5014765;28;20245;-72
2022/08/21 08:49:29;;;;;;;0.32;0.32;;;21.70;99.90;;;;;;5013557;28;20677;-73
2022/08/21 08:52:13;;;;;;;0.30;0.30;;;21.80;99.90;;;;;;5013886;28;20558;-72
2022/08/21 08:54:49;;;;;;;0.32;0.32;;;22.40;99.90;;;;;;5013322;28;20195;-71
2022/08/21 08:57:22;;;;;;;0.57;0.57;;;22.90;99.90;;;;;;5013507;28;20197;-71
2022/08/21 08:59:54;;;;;;;0.75;0.73;;;22.50;99.90;;;;;;5012527;28;20194;-72
2022/08/21 09:02:23;;;;;;;0.77;0.77;;;22.40;99.90;;;;;;5011222;28;20699;-74
2022/08/21 09:04:50;;;;;;;8.00;3.13;;;22.70;99.90;;;;;;5011610;28;20563;-73
2022/08/21 09:07:44;;;;;;;2.53;0.73;;;23.10;99.90;;;;;;5013031;28;20400;-74
2022/08/21 09:10:16;;;;;;;12.18;0.93;;;23.30;99.90;;;;;;5011612;28;20693;-72
2022/08/21 09:13:11;;;;;;;0.63;0.57;;;23.30;99.90;;;;;;4997115;28;20199;-72
2022/08/21 09:15:53;;;;;;;0.30;0.30;;;23.10;99.90;;;;;;4999179;28;20202;-73
2022/08/21 09:18:44;;;;;;;1.35;0.47;;;23.20;99.90;;;;;;5012773;28;20230;-71
2022/08/21 09:21:15;;;;;;;0.30;0.30;;;23.70;99.90;;;;;;5012355;28;20190;-73
2022/08/21 09:24:02;;;;;;;0.30;0.30;;;24.00;99.90;;;;;;5011990;28;20520;-73
2022/08/21 09:26:36;;;;;;;0.25;0.25;;;24.10;99.90;;;;;;5012485;28;20222;-71
2022/08/21 09:29:02;;;;;;;3.53;1.27;;;23.90;99.90;;;;;;5012661;28;20206;-71
2022/08/21 09:31:33;;;;;;;0.20;0.20;;;23.50;99.90;;;;;;5011348;28;20611;-73
2022/08/21 09:34:04;;;;;;;0.17;0.17;;;23.20;99.90;;;;;;5012805;28;20560;-72
2022/08/21 09:36:50;;;;;;;0.45;0.30;;;23.00;99.90;;;;;;5011479;28;20684;-71
2022/08/21 09:39:37;;;;;;;1.75;0.45;;;23.00;99.90;;;;;;5012049;28;20214;-72
2022/08/21 09:42:09;;;;;;;0.30;0.30;;;23.10;99.90;;;;;;5011783;28;20229;-73
2022/08/21 09:44:39;;;;;;;0.20;0.20;;;23.40;99.90;;;;;;5012162;28;20620;-72
2022/08/21 09:47:07;;;;;;;0.52;0.40;;;23.70;99.90;;;;;;4991674;28;20203;-71
2022/08/21 09:49:36;;;;;;;0.40;0.40;;;23.70;99.90;;;;;;4992743;28;20195;-71
2022/08/21 09:52:11;;;;;;;0.25;0.25;;;23.40;99.90;;;;;;4991782;28;20210;-70
2022/08/21 09:54:40;;;;;;;0.38;0.38;;;22.90;99.90;;;;;;4992902;28;20191;-71
2022/08/21 10:00:07;;;;;;;0.30;0.30;;;23.00;99.90;;;;;;4993015;28;20580;-72
2022/08/21 10:02:35;;;;;;;0.45;0.35;;;23.30;99.90;;;;;;4992801;28;20554;-69
2022/08/21 10:05:15;;;;;;;0.30;0.30;;;24.00;99.90;;;;;;4991310;28;20287;-71
2022/08/21 10:07:41;;;;;;;0.43;0.43;;;24.20;99.90;;;;;;4995454;28;20194;-70
2022/08/21 10:10:17;;;;;;;0.47;0.43;;;24.30;99.90;;;;;;5011503;28;20218;-71
2022/08/21 10:13:09;;;;;;;0.30;0.30;;;24.90;99.90;;;;;;5012597;28;20202;-71
2022/08/21 10:15:59;;;;;;;0.20;0.20;;;24.90;99.90;;;;;;5012683;28;20202;-70
2022/08/21 10:18:42;;;;;;;0.40;0.40;;;23.80;99.90;;;;;;5012273;28;20576;-70
2022/08/21 10:21:17;;;;;;;0.43;0.43;;;23.20;99.90;;;;;;5012740;28;20219;-70
2022/08/21 10:23:57;;;;;;;1.85;0.75;;;22.80;99.90;;;;;;5012735;28;20190;-69
2022/08/21 10:26:45;;;;;;;0.22;0.22;;;22.70;99.90;;;;;;5010998;28;20201;-69
2022/08/21 10:29:28;;;;;;;0.35;0.35;;;22.80;99.90;;;;;;5011360;28;20689;-70
2022/08/21 10:32:17;;;;;;;0.20;0.20;;;22.80;99.90;;;;;;5011433;28;20199;-70
2022/08/21 10:34:49;;;;;;;0.10;0.10;;;23.00;99.90;;;;;;5010508;28;20229;-69
2022/08/21 10:37:44;;;;;;;0.10;0.10;;;23.60;99.90;;;;;;5012680;28;20191;-70
2022/08/21 10:40:30;;;;;;;0.35;0.35;;;24.40;99.90;;;;;;4976199;28;20627;-70
2022/08/21 10:43:22;;;;;;;0.20;0.20;;;25.00;99.90;;;;;;5012664;28;20187;-69
2022/08/21 10:46:11;;;;;;;0.68;0.32;;;24.90;99.90;;;;;;5007876;28;20203;-70
2022/08/21 10:48:54;;;;;;;0.20;0.20;;;25.50;99.90;;;;;;5003546;28;20635;-70
2022/08/21 10:51:27;;;;;;;0.20;0.20;;;24.60;99.90;;;;;;5012458;28;20187;-70
2022/08/21 10:53:58;;;;;;;0.32;0.32;;;24.10;99.90;;;;;;5012820;28;20191;-70
2022/08/21 10:56:31;;;;;;;0.25;0.25;;;23.60;99.90;;;;;;5014638;28;20233;-70
2022/08/21 10:59:09;;;;;;;0.50;0.50;;;23.80;99.90;;;;;;5015852;28;20221;-70
2022/08/21 11:02:05;;;;;;;1.52;0.60;;;23.20;99.90;;;;;;5015679;28;20206;-69
2022/08/21 11:04:53;;;;;;;0.65;0.65;;;23.10;99.90;;;;;;5014475;28;20203;-70
2022/08/21 11:07:32;;;;;;;0.17;0.17;;;23.00;99.90;;;;;;5014280;28;20218;-70
2022/08/21 11:10:05;;;;;;;0.50;0.50;;;22.60;99.90;;;;;;5015742;28;20576;-69
2022/08/21 11:12:37;;;;;;;0.32;0.32;;;22.30;99.90;;;;;;5015742;28;20646;-70
2022/08/21 11:15:06;;;;;;;0.68;0.52;;;23.00;99.90;;;;;;5015763;28;20195;-69
2022/08/21 11:17:48;;;;;;;0.47;0.35;;;24.00;99.90;;;;;;5013603;28;20254;-69
2022/08/21 11:20:23;;;;;;;0.38;0.30;;;24.70;99.90;;;;;;5014327;28;20211;-70
2022/08/21 11:23:00;;;;;;;0.55;0.50;;;25.30;99.90;;;;;;5015760;28;20190;-70
2022/08/21 11:25:39;;;;;;;0.28;0.28;;;25.50;99.90;;;;;;5015415;28;20198;-70
2022/08/21 11:28:26;;;;;;;0.40;0.25;;;25.70;99.90;;;;;;5015476;28;20717;-71
2022/08/21 11:31:01;;;;;;;0.50;0.43;;;25.50;99.90;;;;;;5013341;28;20198;-69
2022/08/21 11:33:32;;;;;;;0.20;0.20;;;25.10;99.90;;;;;;5013842;28;20272;-70
2022/08/21 11:36:33;;;;;;;0.30;0.30;;;24.80;99.90;;;;;;5014036;28;20199;-70
2022/08/21 11:39:23;;;;;;;0.30;0.30;;;25.30;99.90;;;;;;5015204;28;20244;-70
2022/08/21 11:42:18;;;;;;;1.08;0.60;;;25.40;99.90;;;;;;5014134;28;20222;-70
2022/08/21 11:45:10;;;;;;;0.20;0.20;;;24.20;99.90;;;;;;5004906;28;20206;-70
2022/08/21 11:47:55;;;;;;;0.30;0.30;;;23.10;99.90;;;;;;4995259;28;20257;-70
2022/08/21 11:50:27;;;;;;;0.57;0.52;;;22.30;99.90;;;;;;4995022;28;20686;-70
2022/08/21 11:53:09;;;;;;;0.47;0.40;;;22.20;99.90;;;;;;5026814;28;20245;-70
2022/08/21 11:56:06;;;;;;;0.65;0.35;;;22.10;99.90;;;;;;4993682;28;20211;-70
2022/08/21 11:59:04;;;;;;;0.55;0.30;;;22.50;99.90;;;;;;4990832;28;20253;-70
2022/08/21 12:01:36;;;;;;;0.35;0.35;;;23.50;99.90;;;;;;5005089;28;20207;-70
2022/08/21 12:04:29;;;;;;;0.57;0.55;;;24.40;99.90;;;;;;5013416;28;20680;-70
2022/08/21 12:06:55;;;;;;;1.88;0.32;;;24.90;99.90;;;;;;5006288;28;20210;-70
2022/08/21 12:09:31;;;;;;;0.43;0.43;;;25.00;99.90;;;;;;5013099;28;20293;-70
2022/08/21 12:12:23;;;;;;;0.30;0.30;;;24.70;99.90;;;;;;5013234;28;20198;-69
2022/08/21 12:14:51;;;;;;;3.60;1.05;;;25.00;99.90;;;;;;5014430;28;20190;-70
2022/08/21 12:17:39;;;;;;;0.40;0.40;;;24.90;99.90;;;;;;5013164;28;20203;-71
2022/08/21 12:20:22;;;;;;;0.28;0.28;;;25.30;99.90;;;;;;5014079;28;20214;-70
2022/08/21 12:22:53;;;;;;;0.20;0.20;;;25.30;99.90;;;;;;5014412;28;20202;-70
2022/08/21 12:25:21;;;;;;;0.17;0.17;;;25.60;99.90;;;;;;5012965;28;20203;-70
2022/08/21 12:27:51;;;;;;;0.25;0.25;;;25.70;99.90;;;;;;5012366;28;20206;-71
2022/08/21 12:30:26;;;;;;;0.50;0.50;;;25.30;99.90;;;;;;5013123;28;20238;-70
2022/08/21 12:33:05;;;;;;;0.77;0.60;;;24.70;99.90;;;;;;5014319;28;20194;-70
2022/08/21 12:35:38;;;;;;;7.90;0.63;;;23.90;99.90;;;;;;5012835;28;20199;-70
2022/08/21 12:38:43;;;;;;;0.40;0.40;;;23.40;99.90;;;;;;5012837;28;20202;-70
2022/08/21 12:41:19;;;;;;;0.40;0.40;;;23.50;99.90;;;;;;5000199;28;20202;-71
2022/08/21 12:44:10;;;;;;;0.35;0.35;;;24.20;99.90;;;;;;5014080;28;20249;-71
2022/08/21 12:47:05;;;;;;;2.58;0.55;;;24.90;99.90;;;;;;4998033;28;20231;-71
2022/08/21 12:49:36;;;;;;;1.25;0.90;;;25.10;99.90;;;;;;4989133;28;20774;-71
2022/08/21 12:52:12;;;;;;;0.40;0.40;;;25.10;99.90;;;;;;4994346;28;20191;-72
2022/08/21 12:54:43;;;;;;;0.30;0.30;;;24.90;99.90;;;;;;4992836;28;20206;-72
2022/08/21 12:57:18;;;;;;;0.22;0.22;;;25.00;99.90;;;;;;5035578;28;20277;-72
2022/08/21 12:59:44;;;;;;;0.30;0.30;;;25.00;99.90;;;;;;5013458;28;20195;-71
2022/08/21 13:02:18;;;;;;;0.52;0.52;;;24.70;99.90;;;;;;5013586;28;20256;-71
2022/08/21 13:04:45;;;;;;;1.17;0.20;;;24.70;99.90;;;;;;5012219;28;20222;-71
2022/08/21 13:07:15;;;;;;;0.43;0.43;;;24.90;99.90;;;;;;5013614;28;20201;-71
2022/08/21 13:09:52;;;;;;;0.50;0.20;;;24.90;99.90;;;;;;5013285;28;20294;-71